KOKC Airport Information

Runway Information
Runway 13 Length 7800 ft width 150 ft
Elevation 1279 ft Threshold 0 ft Heading 135
Runway 31 Length 7800 ft Width 150 ft
Elevation 1286 ft Threshold 0 ft Heading 315
Runway 17L Length 9802 ft width 150 ft
Elevation 1286 ft Threshold 0 ft Heading 180
Runway 35R Length 9802 ft Width 150 ft
Elevation 1283 ft Threshold 0 ft Heading 360
Runway 17R Length 9800 ft width 150 ft
Elevation 1282 ft Threshold 0 ft Heading 180
Runway 35L Length 9800 ft Width 150 ft
Elevation 1263 ft Threshold 0 ft Heading 360
Runway 18 Length 3079 ft width 75 ft
Elevation 1275 ft Threshold 0 ft Heading 180
Runway 36 Length 3079 ft Width 75 ft
Elevation 1271 ft Threshold 0 ft Heading 360
Airport Frequencies
Type A/D Name OKE CITY A Frequency 120.45 MHZ
Type ATIS Name ATIS Frequency 125.85 MHZ
Type CLD Name CLNC DEL Frequency 124.35 MHZ
Type GND Name GND Frequency 121.9 MHZ
Type OPS Name ANG OPS CO Frequency 22.56 MHZ
Type TWR Name ROGERS TWR Frequency 119.35 MHZ
Airport Navaids
Type NDB Name Tuloo Frequency 406 KHZ
Airport Weather Information & NOTAM
ADDS - METARS form results

(1921 UTC 20 October 2021)
Data provider http://aviationweather.gov/metar/data/
 
METAR text: KOKC 201852Z 35009KT 10SM FEW035 21/10 A3010 RMK AO2 SLP183 T02060100
Conditions at: KOKC (OKLAHOMA CITY , OK, US) observed 1852 UTC 20 October 2021
Temperature: 20.6°C (69°F)
Dewpoint: 10.0°C (50°F) [RH = 51%]
Pressure (altimeter): 30.10 inches Hg (1019.4 mb)
[Sea-level pressure: 1018.3 mb]
Winds: from the N (350 degrees) at 10 MPH (9 knots; 4.6 m/s)
Visibility: 10 or more miles (16+ km)
Ceiling: at least 12,000 feet AGL
Clouds: few clouds at 3500 feet AGL
Weather: no significant weather observed at this time

METAR text: KOKC 201826Z 34009KT 10SM SCT028 20/10 A3011 RMK AO2 T02000100
Conditions at: KOKC (OKLAHOMA CITY , OK, US) observed 1826 UTC 20 October 2021
Temperature: 20.0°C (68°F)
Dewpoint: 10.0°C (50°F) [RH = 53%]
Pressure (altimeter): 30.11 inches Hg (1019.7 mb)
Winds: from the NNW (340 degrees) at 10 MPH (9 knots; 4.6 m/s)
Visibility: 10 or more miles (16+ km)
Ceiling: at least 12,000 feet AGL
Clouds: scattered clouds at 2800 feet AGL
Weather: no significant weather observed at this time

Forecast for: KOKC (OKLAHOMA CITY , OK, US)
Text: KOKC 201902Z 2019/2118 35010KT P6SM SKC
Forecast period: 1900 UTC 20 October 2021 to 1800 UTC 21 October 2021
Forecast type: FROM: standard forecast or significant change
Winds: from the N (350 degrees) at 12 MPH (10 knots; 5.1 m/s)
Visibility: 6 or more miles (10+ km)
Clouds: clear skies
Weather: no significant weather forecast for this period